Time;durP1;ratioP1;P1;durP2;ratioP2;P2;SDS_P1;SDS_P2;PMS_P1;PMS_P2;Temp;Humidity;BMP_temperature;BMP_pressure;BME280_temperature;BME280_humidity;BME280_pressure;Samples;Min_cycle;Max_cycle;Signal;HPM_P1;HPM_P2
2024/02/06 00:01:28;;;;;;;5.23;4.03;;;;;;;;;;5021017;28;20185;-60
2024/02/06 00:03:55;;;;;;;4.37;3.33;;;;;;;;;;5015255;28;20292;-61
2024/02/06 00:06:21;;;;;;;6.27;3.67;;;;;;;;;;5016694;28;20190;-65
2024/02/06 00:08:47;;;;;;;6.53;3.93;;;;;;;;;;5023449;28;20248;-61
2024/02/06 00:11:13;;;;;;;6.90;4.30;;;;;;;;;;5019335;28;20644;-62
2024/02/06 00:13:39;;;;;;;6.20;3.90;;;;;;;;;;5023777;28;20182;-62
2024/02/06 00:16:12;;;;;;;9.60;4.97;;;;;;;;;;5013763;28;20273;-65
2024/02/06 00:18:38;;;;;;;7.50;4.07;;;;;;;;;;5022504;28;20811;-60
2024/02/06 00:21:04;;;;;;;8.63;5.87;;;;;;;;;;5027059;28;20588;-62
2024/02/06 00:23:30;;;;;;;5.07;3.80;;;;;;;;;;5021519;28;20275;-61
2024/02/06 00:25:57;;;;;;;5.57;3.63;;;;;;;;;;5027827;28;20259;-60
2024/02/06 00:28:23;;;;;;;8.80;4.57;;;;;;;;;;5021006;28;20178;-61
2024/02/06 00:30:49;;;;;;;4.17;3.77;;;;;;;;;;5026126;28;20193;-63
2024/02/06 00:33:15;;;;;;;6.10;4.07;;;;;;;;;;5021421;28;20194;-56
2024/02/06 00:35:41;;;;;;;9.27;4.50;;;;;;;;;;5024302;28;20367;-61
2024/02/06 00:38:08;;;;;;;6.10;4.47;;;;;;;;;;5021993;28;20238;-63
2024/02/06 00:40:34;;;;;;;5.17;4.37;;;;;;;;;;5019077;28;20217;-63
2024/02/06 00:43:00;;;;;;;5.37;4.10;;;;;;;;;;5018226;28;20237;-62
2024/02/06 00:45:27;;;;;;;7.87;4.73;;;;;;;;;;5023708;28;20930;-62
2024/02/06 00:47:53;;;;;;;4.20;3.60;;;;;;;;;;5026250;28;20256;-62
2024/02/06 00:50:19;;;;;;;15.50;4.90;;;;;;;;;;5027042;28;20269;-60
2024/02/06 00:52:46;;;;;;;8.50;4.00;;;;;;;;;;5017863;28;20281;-61
2024/02/06 00:55:15;;;;;;;3.53;3.23;;;;;;;;;;5025043;28;20200;-62
2024/02/06 00:57:41;;;;;;;8.13;3.90;;;;;;;;;;5023532;28;20182;-63
2024/02/06 01:00:08;;;;;;;5.50;3.70;;;;;;;;;;5022679;28;20178;-60
2024/02/06 01:02:34;;;;;;;5.20;3.60;;;;;;;;;;5025820;28;20854;-63
2024/02/06 01:05:01;;;;;;;5.93;4.17;;;;;;;;;;5024884;28;20181;-61
2024/02/06 01:07:27;;;;;;;5.73;4.03;;;;;;;;;;5028002;28;20224;-62
2024/02/06 01:09:53;;;;;;;8.90;4.37;;;;;;;;;;5023460;28;20648;-60
2024/02/06 01:12:19;;;;;;;6.93;4.43;;;;;;;;;;5023552;28;20346;-62
2024/02/06 01:14:45;;;;;;;6.13;3.60;;;;;;;;;;5020438;28;20251;-59
2024/02/06 01:17:11;;;;;;;4.47;3.90;;;;;;;;;;5020912;28;20181;-65
2024/02/06 01:19:37;;;;;;;4.83;3.87;;;;;;;;;;5017764;28;20498;-64
2024/02/06 01:22:03;;;;;;;8.03;4.50;;;;;;;;;;5019106;28;20256;-64
2024/02/06 01:24:29;;;;;;;6.20;4.70;;;;;;;;;;5023610;28;20181;-62
2024/02/06 01:26:55;;;;;;;5.07;3.83;;;;;;;;;;5023622;28;20243;-62
2024/02/06 01:29:21;;;;;;;6.87;3.93;;;;;;;;;;5022655;28;20216;-63
2024/02/06 01:31:47;;;;;;;6.47;4.00;;;;;;;;;;5017196;28;20198;-61
2024/02/06 01:34:13;;;;;;;7.97;4.17;;;;;;;;;;5021047;28;20224;-64
2024/02/06 01:36:39;;;;;;;4.10;3.70;;;;;;;;;;5021701;28;20634;-63
2024/02/06 01:39:07;;;;;;;4.23;3.53;;;;;;;;;;5023854;28;20177;-61
2024/02/06 01:41:33;;;;;;;8.67;3.80;;;;;;;;;;5018820;28;20197;-63
2024/02/06 01:43:59;;;;;;;8.10;3.87;;;;;;;;;;5018506;28;20236;-65
2024/02/06 01:46:26;;;;;;;5.33;3.60;;;;;;;;;;5022892;28;20198;-64
2024/02/06 01:48:53;;;;;;;5.30;3.60;;;;;;;;;;5022175;28;20169;-64
2024/02/06 01:51:19;;;;;;;6.47;4.10;;;;;;;;;;5023220;28;20591;-64
2024/02/06 01:53:45;;;;;;;6.43;3.67;;;;;;;;;;5019315;28;20276;-55
2024/02/06 01:56:12;;;;;;;5.53;3.47;;;;;;;;;;5020116;28;20182;-62
2024/02/06 01:58:38;;;;;;;4.40;3.07;;;;;;;;;;5020506;28;20193;-65
2024/02/06 02:01:05;;;;;;;5.40;3.47;;;;;;;;;;5023026;28;20189;-66
2024/02/06 02:03:32;;;;;;;7.80;3.27;;;;;;;;;;5021796;28;20209;-64
2024/02/06 02:06:04;;;;;;;4.33;3.67;;;;;;;;;;5024943;28;20663;-67
2024/02/06 02:08:33;;;;;;;7.97;3.50;;;;;;;;;;5021165;28;20192;-63
2024/02/06 02:10:59;;;;;;;6.17;3.30;;;;;;;;;;5022137;28;20281;-64
2024/02/06 02:13:26;;;;;;;7.60;3.27;;;;;;;;;;5023062;28;20201;-63
2024/02/06 02:15:52;;;;;;;5.87;3.80;;;;;;;;;;5021096;28;20606;-62
2024/02/06 02:18:18;;;;;;;3.67;3.13;;;;;;;;;;5017929;28;20245;-63
2024/02/06 02:20:44;;;;;;;5.70;3.53;;;;;;;;;;5022190;28;21621;-63
2024/02/06 02:23:10;;;;;;;4.57;3.30;;;;;;;;;;5025214;28;20197;-64
2024/02/06 02:25:36;;;;;;;5.03;3.43;;;;;;;;;;5021561;28;20629;-63
2024/02/06 02:28:03;;;;;;;6.13;3.07;;;;;;;;;;5018501;28;20170;-52
2024/02/06 02:30:29;;;;;;;8.17;3.67;;;;;;;;;;5023284;28;20200;-53
2024/02/06 02:32:56;;;;;;;5.43;3.47;;;;;;;;;;5026126;28;20201;-52
2024/02/06 02:35:29;;;;;;;6.50;3.67;;;;;;;;;;5020713;28;20191;-53
2024/02/06 02:37:55;;;;;;;8.07;3.23;;;;;;;;;;5024200;28;20229;-53
2024/02/06 02:40:21;;;;;;;5.50;3.73;;;;;;;;;;5020626;28;20182;-54
2024/02/06 02:42:47;;;;;;;5.23;3.53;;;;;;;;;;5017789;28;20206;-53
2024/02/06 02:45:13;;;;;;;4.50;3.47;;;;;;;;;;5022621;28;20539;-52
2024/02/06 02:47:39;;;;;;;6.10;3.17;;;;;;;;;;5015602;28;20186;-54
2024/02/06 02:50:05;;;;;;;7.40;3.30;;;;;;;;;;5026272;28;20162;-53
2024/02/06 02:52:31;;;;;;;6.93;3.93;;;;;;;;;;5024919;28;20208;-55
2024/02/06 02:54:57;;;;;;;4.37;3.97;;;;;;;;;;5016467;28;20744;-54
2024/02/06 02:57:23;;;;;;;4.53;3.33;;;;;;;;;;5023720;28;20250;-52
2024/02/06 02:59:49;;;;;;;8.10;2.90;;;;;;;;;;5018225;28;20528;-56
2024/02/06 03:02:15;;;;;;;8.23;3.80;;;;;;;;;;5024651;28;20206;-52
2024/02/06 03:04:42;;;;;;;6.73;5.23;;;;;;;;;;5020822;28;20178;-53
2024/02/06 03:07:08;;;;;;;6.33;3.10;;;;;;;;;;5020506;28;20189;-53
2024/02/06 03:09:35;;;;;;;7.23;3.73;;;;;;;;;;5018437;28;20260;-53
2024/02/06 03:12:01;;;;;;;6.13;3.47;;;;;;;;;;5025280;28;20382;-51
2024/02/06 03:14:27;;;;;;;8.70;3.50;;;;;;;;;;5017497;28;20178;-52
2024/02/06 03:16:53;;;;;;;8.13;3.40;;;;;;;;;;5025046;28;20255;-53
2024/02/06 03:19:19;;;;;;;6.40;3.73;;;;;;;;;;5026833;28;20704;-53
2024/02/06 03:21:46;;;;;;;6.13;4.20;;;;;;;;;;5023833;28;20213;-52
2024/02/06 03:24:12;;;;;;;7.97;3.53;;;;;;;;;;5017269;28;20249;-54
2024/02/06 03:26:38;;;;;;;3.47;3.03;;;;;;;;;;5029038;28;20205;-54
2024/02/06 03:29:05;;;;;;;4.80;3.37;;;;;;;;;;5022453;28;20629;-54
2024/02/06 03:31:31;;;;;;;8.67;3.63;;;;;;;;;;5029201;28;20185;-52
2024/02/06 03:33:56;;;;;;;;;;;;;;;;;;5028495;28;20186;-52
2024/02/06 03:36:22;;;;;;;;;;;;;;;;;;5020701;28;19948;-53
2024/02/06 03:38:48;;;;;;;;;;;;;;;;;;5021465;28;19917;-52
2024/02/06 03:41:14;;;;;;;;;;;;;;;;;;5022339;28;20398;-51
2024/02/06 03:43:40;;;;;;;;;;;;;;;;;;5021012;28;20031;-51
2024/02/06 03:46:06;;;;;;;;;;;;;;;;;;5023681;28;20027;-51
2024/02/06 03:48:35;;;;;;;;;;;;;;;;;;5018138;28;20019;-52
2024/02/06 03:51:01;;;;;;;;;;;;;;;;;;5023998;28;19956;-52
2024/02/06 03:53:27;;;;;;;;;;;;;;;;;;5024354;28;19959;-53
2024/02/06 03:55:53;;;;;;;;;;;;;;;;;;5026812;28;19963;-52
2024/02/06 03:58:19;;;;;;;;;;;;;;;;;;5013705;28;19981;-52
2024/02/06 04:00:49;;;;;;;;;;;;;;;;;;5028938;28;19959;-53
2024/02/06 04:03:15;;;;;;;;;;;;;;;;;;5025018;28;19913;-51
2024/02/06 04:05:41;;;;;;;;;;;;;;;;;;5025372;28;19913;-51
2024/02/06 04:08:07;;;;;;;;;;;;;;;;;;5022011;28;19908;-52
2024/02/06 04:10:33;;;;;;;;;;;;;;;;;;5021599;28;20554;-52
2024/02/06 04:12:59;;;;;;;;;;;;;;;;;;5026709;28;19999;-53
2024/02/06 04:15:25;;;;;;;;;;;;;;;;;;5025454;28;19956;-51
2024/02/06 04:17:51;;;;;;;;;;;;;;;;;;5018005;28;20374;-55
2024/02/06 04:20:17;;;;;;;;;;;;;;;;;;5019805;28;20400;-53
2024/02/06 04:22:43;;;;;;;;;;;;;;;;;;5022911;28;19964;-53
2024/02/06 04:25:09;;;;;;;;;;;;;;;;;;5023283;28;19972;-51
2024/02/06 04:27:35;;;;;;;;;;;;;;;;;;5028282;28;19963;-51
2024/02/06 04:30:01;;;;;;;;;;;;;;;;;;5022570;28;19937;-52
2024/02/06 04:32:27;;;;;;;;;;;;;;;;;;5021751;28;19967;-53
2024/02/06 04:34:53;;;;;;;;;;;;;;;;;;5025696;28;19948;-53
2024/02/06 04:37:19;;;;;;;;;;;;;;;;;;5028751;28;20006;-52
2024/02/06 04:39:45;;;;;;;;;;;;;;;;;;5023703;28;19976;-52
2024/02/06 04:42:11;;;;;;;;;;;;;;;;;;5033795;28;19917;-53
2024/02/06 04:44:37;;;;;;;;;;;;;;;;;;5028486;28;19966;-52
2024/02/06 04:47:03;;;;;;;;;;;;;;;;;;5027537;28;20089;-52
2024/02/06 04:49:29;;;;;;;;;;;;;;;;;;5027545;28;19958;-53
2024/02/06 04:51:55;;;;;;;;;;;;;;;;;;5033067;28;19955;-53
2024/02/06 04:54:21;;;;;;;;;;;;;;;;;;5027981;28;19956;-52
2024/02/06 04:56:48;;;;;;;;;;;;;;;;;;5026898;28;19924;-53
2024/02/06 04:59:13;;;;;;;;;;;;;;;;;;5027276;28;20395;-54
2024/02/06 05:01:39;;;;;;;;;;;;;;;;;;5026097;28;20063;-52
2024/02/06 05:04:05;;;;;;;;;;;;;;;;;;5021062;28;19949;-54
2024/02/06 05:06:31;;;;;;;;;;;;;;;;;;5029218;28;19956;-52
2024/02/06 05:08:57;;;;;;;;;;;;;;;;;;5022010;28;19963;-51
2024/02/06 05:11:23;;;;;;;;;;;;;;;;;;5019906;28;19974;-50
2024/02/06 05:13:49;;;;;;;;;;;;;;;;;;5023796;28;20392;-53
2024/02/06 05:16:16;;;;;;;;;;;;;;;;;;5024178;28;21091;-51
2024/02/06 05:18:42;;;;;;;;;;;;;;;;;;5018152;28;19953;-53
2024/02/06 05:21:08;;;;;;;;;;;;;;;;;;5021772;28;20281;-53
2024/02/06 05:23:34;;;;;;;;;;;;;;;;;;5027721;28;19927;-54
2024/02/06 05:26:00;;;;;;;;;;;;;;;;;;5025795;28;19913;-51
2024/02/06 05:28:26;;;;;;;;;;;;;;;;;;5027960;28;19965;-51
2024/02/06 05:30:52;;;;;;;;;;;;;;;;;;5020490;28;20063;-52
2024/02/06 05:33:18;;;;;;;;;;;;;;;;;;5024548;28;20547;-52
2024/02/06 05:35:44;;;;;;;9.30;4.20;;;;;;;;;;5025474;28;20000;-53
2024/02/06 05:38:10;;;;;;;6.80;3.67;;;;;;;;;;5026318;28;20528;-52
2024/02/06 05:40:36;;;;;;;4.47;3.40;;;;;;;;;;5022248;28;20244;-52
2024/02/06 05:43:02;;;;;;;6.97;3.80;;;;;;;;;;5025020;28;20205;-52
2024/02/06 05:45:28;;;;;;;4.97;3.63;;;;;;;;;;5024882;28;20516;-52
2024/02/06 05:47:58;;;;;;;6.93;3.33;;;;;;;;;;5024050;28;20188;-52
2024/02/06 05:50:24;;;;;;;3.77;3.17;;;;;;;;;;5026209;28;20232;-51
2024/02/06 05:52:51;;;;;;;5.63;3.37;;;;;;;;;;5024153;28;20201;-51
2024/02/06 05:55:17;;;;;;;4.77;4.03;;;;;;;;;;5019802;28;20201;-55
2024/02/06 05:57:43;;;;;;;5.93;4.70;;;;;;;;;;5024449;28;20189;-55
2024/02/06 06:00:09;;;;;;;4.87;3.50;;;;;;;;;;5024562;28;20228;-55
2024/02/06 06:02:35;;;;;;;5.63;3.90;;;;;;;;;;5023382;28;20630;-54
2024/02/06 06:05:01;;;;;;;7.53;3.77;;;;;;;;;;5022671;28;20185;-56
2024/02/06 06:07:27;;;;;;;6.17;3.70;;;;;;;;;;5025209;28;20200;-54
2024/02/06 06:09:53;;;;;;;6.47;4.30;;;;;;;;;;5025146;28;20182;-55
2024/02/06 06:12:19;;;;;;;4.80;4.10;;;;;;;;;;5024662;28;20223;-54
2024/02/06 06:14:45;;;;;;;4.67;3.77;;;;;;;;;;5017356;28;20186;-55
2024/02/06 06:17:11;;;;;;;9.70;4.07;;;;;;;;;;5017728;28;20645;-55
2024/02/06 06:19:37;;;;;;;5.20;3.70;;;;;;;;;;5022953;28;20189;-55
2024/02/06 06:22:07;;;;;;;5.77;4.67;;;;;;;;;;5023747;28;20190;-55
2024/02/06 06:24:33;;;;;;;10.50;9.52;;;;;;;;;;5023311;28;20508;-54
2024/02/06 06:26:59;;;;;;;11.30;7.23;;;;;;;;;;5020904;28;20196;-54
2024/02/06 06:29:25;;;;;;;15.17;13.47;;;;;;;;;;5026145;28;20583;-54
2024/02/06 06:31:51;;;;;;;7.17;5.43;;;;;;;;;;5026364;28;20173;-54
2024/02/06 06:34:17;;;;;;;6.90;5.50;;;;;;;;;;5023617;28;20193;-55
2024/02/06 06:36:43;;;;;;;8.53;4.83;;;;;;;;;;5027501;28;20174;-55
2024/02/06 06:39:11;;;;;;;10.15;9.25;;;;;;;;;;5022861;28;20774;-54
2024/02/06 06:41:37;;;;;;;6.67;4.93;;;;;;;;;;5023742;28;20220;-56
2024/02/06 06:44:03;;;;;;;9.93;8.63;;;;;;;;;;5025948;28;20234;-56
2024/02/06 06:46:29;;;;;;;5.97;5.17;;;;;;;;;;5025181;28;20574;-55
2024/02/06 06:48:55;;;;;;;9.37;5.10;;;;;;;;;;5021832;28;20181;-55
2024/02/06 06:51:21;;;;;;;11.03;10.00;;;;;;;;;;5024532;28;20201;-55
2024/02/06 06:53:47;;;;;;;7.27;4.67;;;;;;;;;;5015468;28;20685;-55
2024/02/06 06:56:17;;;;;;;14.70;11.00;;;;;;;;;;5023307;28;20755;-55
2024/02/06 06:58:43;;;;;;;12.20;8.10;;;;;;;;;;5023367;28;20227;-54
2024/02/06 07:01:10;;;;;;;7.27;4.80;;;;;;;;;;5018171;28;20730;-54
2024/02/06 07:03:36;;;;;;;11.57;10.63;;;;;;;;;;5032960;28;20633;-54
2024/02/06 07:06:02;;;;;;;7.47;4.43;;;;;;;;;;5027423;28;20261;-54
2024/02/06 07:08:28;;;;;;;7.60;4.47;;;;;;;;;;5028106;28;20542;-55
2024/02/06 07:10:54;;;;;;;7.13;3.70;;;;;;;;;;5026858;28;20256;-54
2024/02/06 07:13:20;;;;;;;8.60;4.33;;;;;;;;;;5027514;28;20221;-54
2024/02/06 07:15:46;;;;;;;5.60;4.13;;;;;;;;;;5027267;28;20664;-55
2024/02/06 07:18:12;;;;;;;9.53;5.07;;;;;;;;;;5032032;28;20225;-56
2024/02/06 07:20:38;;;;;;;6.73;4.97;;;;;;;;;;5027874;28;20173;-56
2024/02/06 07:23:04;;;;;;;7.23;5.37;;;;;;;;;;5027703;28;20522;-55
2024/02/06 07:25:30;;;;;;;10.80;7.93;;;;;;;;;;5025559;28;20272;-55
2024/02/06 07:27:56;;;;;;;9.43;7.50;;;;;;;;;;5026924;28;20261;-55
2024/02/06 07:30:22;;;;;;;12.80;7.70;;;;;;;;;;5027412;28;20177;-55
2024/02/06 07:32:48;;;;;;;10.50;4.93;;;;;;;;;;5027745;28;20178;-56
2024/02/06 07:35:14;;;;;;;8.07;7.27;;;;;;;;;;5027448;28;20224;-55
2024/02/06 07:37:40;;;;;;;9.83;8.93;;;;;;;;;;5028123;28;20193;-55
2024/02/06 07:40:09;;;;;;;18.07;8.43;;;;;;;;;;5026615;28;20572;-55
2024/02/06 07:42:35;;;;;;;6.47;5.60;;;;;;;;;;5027635;28;20214;-55
2024/02/06 07:45:01;;;;;;;7.67;5.13;;;;;;;;;;5027014;28;20616;-55
2024/02/06 07:47:28;;;;;;;6.10;4.10;;;;;;;;;;5027309;28;20585;-54
2024/02/06 07:49:54;;;;;;;4.87;3.60;;;;;;;;;;5030567;28;20178;-54
2024/02/06 07:52:20;;;;;;;6.33;4.27;;;;;;;;;;5023237;28;20178;-54
2024/02/06 07:54:47;;;;;;;5.60;3.90;;;;;;;;;;5022052;28;20206;-54
2024/02/06 07:57:13;;;;;;;7.73;4.37;;;;;;;;;;5027471;28;20191;-54
2024/02/06 07:59:39;;;;;;;8.60;4.00;;;;;;;;;;5026897;28;20506;-54
2024/02/06 08:02:05;;;;;;;6.87;4.23;;;;;;;;;;5027651;28;20665;-54
2024/02/06 08:04:31;;;;;;;5.77;4.60;;;;;;;;;;5030468;28;20250;-54
2024/02/06 08:06:57;;;;;;;5.47;4.03;;;;;;;;;;5031296;28;20174;-54
2024/02/06 08:09:24;;;;;;;7.67;4.57;;;;;;;;;;5030600;28;20182;-54
2024/02/06 08:11:50;;;;;;;9.93;4.87;;;;;;;;;;5030610;28;20254;-55
2024/02/06 08:14:17;;;;;;;8.27;5.30;;;;;;;;;;5029808;28;20174;-54
2024/02/06 08:16:43;;;;;;;10.57;4.70;;;;;;;;;;5030770;28;20178;-54
2024/02/06 08:19:09;;;;;;;6.80;4.30;;;;;;;;;;5032396;28;20295;-63
2024/02/06 08:21:35;;;;;;;8.53;4.20;;;;;;;;;;5030805;28;20524;-65
2024/02/06 08:24:02;;;;;;;7.40;4.33;;;;;;;;;;5030722;28;20248;-61
2024/02/06 08:26:28;;;;;;;5.07;4.20;;;;;;;;;;5029880;28;20312;-66
2024/02/06 08:28:54;;;;;;;7.63;4.67;;;;;;;;;;5030732;28;20181;-62
2024/02/06 08:31:22;;;;;;;5.23;4.43;;;;;;;;;;5030031;28;20174;-64
2024/02/06 08:33:50;;;;;;;5.83;4.10;;;;;;;;;;5030784;28;20291;-65
2024/02/06 08:36:17;;;;;;;6.10;4.13;;;;;;;;;;5030258;28;20170;-61
2024/02/06 08:38:43;;;;;;;7.00;4.57;;;;;;;;;;5030238;28;20584;-62
2024/02/06 08:41:09;;;;;;;7.57;4.13;;;;;;;;;;5029366;28;20312;-61
2024/02/06 08:43:36;;;;;;;7.83;4.33;;;;;;;;;;5030165;28;20727;-61
2024/02/06 08:46:02;;;;;;;6.87;4.50;;;;;;;;;;5029817;28;20186;-64
2024/02/06 08:48:29;;;;;;;7.17;4.10;;;;;;;;;;5031372;28;20174;-63
2024/02/06 08:50:58;;;;;;;7.77;3.70;;;;;;;;;;5030239;28;20158;-63
2024/02/06 08:53:25;;;;;;;7.53;4.67;;;;;;;;;;5020888;28;20201;-61
2024/02/06 08:55:51;;;;;;;10.63;5.10;;;;;;;;;;5029321;28;20244;-63
2024/02/06 08:58:17;;;;;;;8.17;4.30;;;;;;;;;;5027444;28;20273;-64
2024/02/06 09:00:43;;;;;;;8.43;4.50;;;;;;;;;;5030034;28;20578;-63
2024/02/06 09:03:09;;;;;;;6.30;4.87;;;;;;;;;;5029903;28;20516;-63
2024/02/06 09:05:35;;;;;;;10.73;4.37;;;;;;;;;;5029864;28;20166;-60
2024/02/06 09:08:01;;;;;;;8.43;4.43;;;;;;;;;;5029981;28;20625;-63
2024/02/06 09:10:28;;;;;;;9.43;8.37;;;;;;;;;;5029068;28;20579;-63
2024/02/06 09:12:54;;;;;;;13.73;7.27;;;;;;;;;;5029806;28;20177;-64
2024/02/06 09:15:20;;;;;;;9.17;4.10;;;;;;;;;;5028277;28;20483;-61
2024/02/06 09:17:47;;;;;;;8.87;4.37;;;;;;;;;;5030127;28;20438;-58
2024/02/06 09:20:14;;;;;;;5.87;4.43;;;;;;;;;;5030555;28;20181;-64
2024/02/06 09:22:40;;;;;;;8.40;4.53;;;;;;;;;;5030043;28;20331;-63
2024/02/06 09:25:07;;;;;;;7.40;4.67;;;;;;;;;;5028535;28;20196;-64
2024/02/06 09:27:33;;;;;;;5.67;3.63;;;;;;;;;;5029841;28;20166;-64
2024/02/06 09:30:00;;;;;;;10.33;5.40;;;;;;;;;;5029190;28;20586;-65
2024/02/06 09:32:28;;;;;;;9.63;7.23;;;;;;;;;;5029486;28;20203;-64
2024/02/06 09:34:55;;;;;;;8.57;5.07;;;;;;;;;;5029109;28;20174;-64
2024/02/06 09:37:21;;;;;;;4.73;4.03;;;;;;;;;;5029512;28;20191;-61
2024/02/06 09:39:47;;;;;;;6.57;5.00;;;;;;;;;;5029110;28;20265;-65
2024/02/06 09:42:13;;;;;;;9.43;4.13;;;;;;;;;;5028998;28;20197;-64
2024/02/06 09:44:39;;;;;;;7.23;4.70;;;;;;;;;;5027930;28;20240;-63
2024/02/06 09:47:05;;;;;;;8.20;5.10;;;;;;;;;;5028826;28;20524;-62
2024/02/06 09:49:31;;;;;;;5.83;4.87;;;;;;;;;;5029547;28;20252;-61
2024/02/06 09:51:58;;;;;;;7.93;3.73;;;;;;;;;;5027173;28;20251;-63
2024/02/06 09:54:25;;;;;;;8.27;4.70;;;;;;;;;;5020077;28;20178;-62
2024/02/06 09:56:53;;;;;;;6.20;4.27;;;;;;;;;;5028191;28;20176;-64
2024/02/06 09:59:19;;;;;;;5.10;4.07;;;;;;;;;;5028353;28;20182;-65
2024/02/06 10:01:45;;;;;;;5.90;4.67;;;;;;;;;;5028048;28;20236;-61
2024/02/06 10:04:13;;;;;;;6.27;5.10;;;;;;;;;;5027695;28;20237;-62
2024/02/06 10:06:39;;;;;;;7.23;5.57;;;;;;;;;;5028804;28;20166;-62
2024/02/06 10:09:06;;;;;;;10.37;4.20;;;;;;;;;;5028177;28;20177;-61
2024/02/06 10:11:34;;;;;;;7.63;4.63;;;;;;;;;;5028548;28;20605;-65
2024/02/06 10:14:04;;;;;;;7.73;4.87;;;;;;;;;;5028540;28;20256;-64
2024/02/06 10:16:30;;;;;;;9.07;4.97;;;;;;;;;;5028702;28;20162;-63
2024/02/06 10:18:57;;;;;;;5.77;4.60;;;;;;;;;;5028011;28;20229;-63
2024/02/06 10:21:24;;;;;;;7.70;5.70;;;;;;;;;;5027658;28;20190;-64
2024/02/06 10:23:50;;;;;;;8.33;4.83;;;;;;;;;;5027609;28;20645;-65
2024/02/06 10:26:19;;;;;;;15.73;5.53;;;;;;;;;;5026315;28;20166;-62
2024/02/06 10:28:45;;;;;;;10.93;4.60;;;;;;;;;;5027196;28;20624;-65
2024/02/06 10:31:12;;;;;;;7.93;4.50;;;;;;;;;;5026848;28;20157;-60
2024/02/06 10:33:38;;;;;;;8.23;4.20;;;;;;;;;;5027544;28;20380;-59
2024/02/06 10:36:05;;;;;;;7.03;5.00;;;;;;;;;;5027678;28;20193;-63
2024/02/06 10:38:32;;;;;;;6.27;4.63;;;;;;;;;;5028435;28;20182;-61
2024/02/06 10:40:58;;;;;;;7.90;4.40;;;;;;;;;;5027881;28;20174;-55
2024/02/06 10:43:30;;;;;;;10.03;4.53;;;;;;;;;;5028047;28;20492;-54
2024/02/06 10:46:00;;;;;;;5.77;4.63;;;;;;;;;;5008241;28;20226;-54
2024/02/06 10:48:26;;;;;;;6.90;4.83;;;;;;;;;;5012512;28;20276;-55
2024/02/06 10:50:57;;;;;;;8.10;4.27;;;;;;;;;;5026702;28;20204;-55
2024/02/06 10:53:23;;;;;;;8.20;4.63;;;;;;;;;;5021548;28;20636;-56
2024/02/06 10:55:50;;;;;;;6.87;4.27;;;;;;;;;;5027237;28;20173;-56
2024/02/06 10:58:19;;;;;;;7.87;4.23;;;;;;;;;;5022758;28;20603;-56
2024/02/06 11:00:45;;;;;;;7.27;4.40;;;;;;;;;;5020345;28;20169;-56
2024/02/06 11:03:14;;;;;;;11.03;4.60;;;;;;;;;;5013410;28;20254;-56
2024/02/06 11:05:45;;;;;;;9.27;4.67;;;;;;;;;;5028065;28;20197;-56
2024/02/06 11:08:15;;;;;;;10.00;4.87;;;;;;;;;;5027109;28;20154;-55
2024/02/06 11:10:43;;;;;;;6.30;4.40;;;;;;;;;;5017980;28;20532;-56
2024/02/06 11:13:12;;;;;;;6.53;4.47;;;;;;;;;;5027332;28;20372;-56
2024/02/06 11:15:42;;;;;;;6.23;3.93;;;;;;;;;;5026333;28;20209;-55
2024/02/06 11:18:10;;;;;;;12.73;4.03;;;;;;;;;;5026784;28;20244;-56
2024/02/06 11:20:37;;;;;;;9.07;4.50;;;;;;;;;;5018766;28;20182;-56
2024/02/06 11:23:05;;;;;;;7.03;4.43;;;;;;;;;;5021311;28;20318;-56
2024/02/06 11:25:31;;;;;;;10.67;6.57;;;;;;;;;;5026882;28;20239;-56
2024/02/06 11:27:58;;;;;;;;;;;;;;;;;;5026489;28;20584;-56
2024/02/06 11:30:24;;;;;;;;;;;;;;;;;;5026058;28;20475;-55
2024/02/06 11:32:50;;;;;;;;;;;;;;;;;;5028265;28;19945;-56
2024/02/06 11:35:15;;;;;;;;;;;;;;;;;;5025389;28;20215;-56
2024/02/06 11:37:41;;;;;;;;;;;;;;;;;;5027197;28;19988;-56
2024/02/06 11:40:07;;;;;;;;;;;;;;;;;;5013890;28;20384;-56
2024/02/06 11:42:34;;;;;;;;;;;;;;;;;;5016861;28;20262;-56
2024/02/06 11:45:00;;;;;;;;;;;;;;;;;;5028000;28;19913;-56
2024/02/06 11:47:26;;;;;;;;;;;;;;;;;;5029456;28;20288;-56
2024/02/06 11:49:51;;;;;;;;;;;;;;;;;;5031123;28;19909;-56
2024/02/06 11:52:17;;;;;;;;;;;;;;;;;;5020580;28;19928;-56
2024/02/06 11:54:43;;;;;;;;;;;;;;;;;;5031106;28;20008;-57
2024/02/06 11:57:10;;;;;;;;;;;;;;;;;;5036996;28;19971;-56
2024/02/06 11:59:36;;;;;;;;;;;;;;;;;;5034151;28;19952;-56
2024/02/06 12:02:02;;;;;;;;;;;;;;;;;;5031327;28;20013;-63
2024/02/06 12:04:29;;;;;;;;;;;;;;;;;;5031380;28;20221;-63
2024/02/06 12:06:55;;;;;;;;;;;;;;;;;;5031339;28;19943;-64
2024/02/06 12:09:21;;;;;;;;;;;;;;;;;;5030400;28;19960;-66
2024/02/06 12:11:47;;;;;;;;;;;;;;;;;;5030998;28;19960;-64
2024/02/06 12:14:13;;;;;;;;;;;;;;;;;;5026026;28;19905;-63
2024/02/06 12:16:39;;;;;;;;;;;;;;;;;;5030545;28;20344;-61
2024/02/06 12:19:05;;;;;;;;;;;;;;;;;;5030549;28;19971;-64
2024/02/06 12:21:32;;;;;;;;;;;;;;;;;;5036515;28;19908;-61
2024/02/06 12:23:58;;;;;;;;;;;;;;;;;;5028732;28;19921;-63
2024/02/06 12:26:24;;;;;;;;;;;;;;;;;;5029410;28;19912;-64
2024/02/06 12:28:50;;;;;;;;;;;;;;;;;;5023652;28;20002;-63
2024/02/06 12:31:16;;;;;;;;;;;;;;;;;;5029351;28;19928;-61
2024/02/06 12:33:43;;;;;;;;;;;;;;;;;;5023695;28;19932;-66
2024/02/06 12:36:09;;;;;;;;;;;;;;;;;;5030776;28;19962;-61
2024/02/06 12:38:35;;;;;;;;;;;;;;;;;;5032456;28;19948;-64
2024/02/06 12:41:01;;;;;;;;;;;;;;;;;;5026306;28;19963;-63
2024/02/06 12:43:27;;;;;;;;;;;;;;;;;;5028512;28;19917;-61
2024/02/06 12:45:53;;;;;;;;;;;;;;;;;;5026963;28;19913;-62
2024/02/06 12:48:19;;;;;;;;;;;;;;;;;;5027867;28;19917;-63
2024/02/06 12:50:45;;;;;;;;;;;;;;;;;;5021246;28;19913;-65
2024/02/06 12:53:11;;;;;;;;;;;;;;;;;;5021066;28;19908;-66
2024/02/06 12:55:39;;;;;;;;;;;;;;;;;;5029697;28;19948;-62
2024/02/06 12:58:05;;;;;;;;;;;;;;;;;;5028858;28;19920;-66
2024/02/06 13:00:31;;;;;;;;;;;;;;;;;;5017433;28;19956;-66
2024/02/06 13:02:58;;;;;;;;;;;;;;;;;;5022092;28;20432;-64
2024/02/06 13:05:24;;;;;;;;;;;;;;;;;;5030017;28;20353;-61
2024/02/06 13:07:50;;;;;;;;;;;;;;;;;;5030080;28;19991;-61
2024/02/06 13:10:17;;;;;;;;;;;;;;;;;;5027309;28;19952;-55
2024/02/06 13:12:43;;;;;;;;;;;;;;;;;;5026672;28;20383;-55
2024/02/06 13:15:10;;;;;;;;;;;;;;;;;;5029754;28;20439;-55
2024/02/06 13:17:36;;;;;;;;;;;;;;;;;;5025823;28;19913;-54
2024/02/06 13:20:03;;;;;;;;;;;;;;;;;;5025501;28;19952;-56
2024/02/06 13:22:29;;;;;;;;;;;;;;;;;;5017805;28;19925;-54
2024/02/06 13:24:54;;;;;;;;;;;;;;;;;;5028920;28;19920;-55
2024/02/06 13:27:21;;;;;;;;;;;;;;;;;;5029428;28;19944;-53
2024/02/06 13:29:46;;;;;;;;;;;;;;;;;;5026211;28;19909;-54
2024/02/06 13:32:12;;;;;;;;;;;;;;;;;;5029193;28;20006;-54
2024/02/06 13:34:38;;;;;;;;;;;;;;;;;;5029531;28;19963;-55
2024/02/06 13:37:07;;;;;;;;;;;;;;;;;;5030048;28;20318;-56
2024/02/06 13:39:33;;;;;;;;;;;;;;;;;;5024334;28;19913;-55
2024/02/06 13:41:59;;;;;;;;;;;;;;;;;;5026462;28;19920;-55
2024/02/06 13:44:25;;;;;;;;;;;;;;;;;;5026811;28;19944;-55
2024/02/06 13:46:51;;;;;;;;;;;;;;;;;;5027636;28;20407;-54
2024/02/06 13:49:17;;;;;;;;;;;;;;;;;;5028196;28;19940;-55
2024/02/06 13:51:43;;;;;;;;;;;;;;;;;;5026719;28;20047;-55
2024/02/06 13:54:09;;;;;;;;;;;;;;;;;;5023813;28;20388;-55
2024/02/06 13:56:35;;;;;;;;;;;;;;;;;;5028661;28;19944;-54
2024/02/06 13:59:00;;;;;;;;;;;;;;;;;;5028127;28;19943;-55
2024/02/06 14:01:27;;;;;;;;;;;;;;;;;;5028084;28;20038;-55
2024/02/06 14:03:53;;;;;;;;;;;;;;;;;;5028711;28;19962;-55
2024/02/06 14:06:19;;;;;;;;;;;;;;;;;;5021292;28;20295;-55
2024/02/06 14:08:45;;;;;;;;;;;;;;;;;;5027433;28;19913;-55
2024/02/06 14:11:11;;;;;;;;;;;;;;;;;;5012450;28;19951;-55
2024/02/06 14:13:37;;;;;;;;;;;;;;;;;;5025817;28;19944;-54
2024/02/06 14:16:03;;;;;;;;;;;;;;;;;;5028160;28;20183;-54
2024/02/06 14:18:29;;;;;;;;;;;;;;;;;;5026157;28;19949;-55
2024/02/06 14:20:55;;;;;;;;;;;;;;;;;;5029393;28;20274;-65
2024/02/06 14:23:21;;;;;;;;;;;;;;;;;;5026938;28;20380;-63
2024/02/06 14:25:47;;;;;;;;;;;;;;;;;;5027212;28;19994;-64
2024/02/06 14:28:13;;;;;;;;;;;;;;;;;;5027003;28;19997;-63
2024/02/06 14:30:39;;;;;;;;;;;;;;;;;;5023857;28;20353;-64
2024/02/06 14:33:06;;;;;;;;;;;;;;;;;;5025900;28;20008;-65
2024/02/06 14:35:32;;;;;;;;;;;;;;;;;;5023125;28;19913;-64
2024/02/06 14:37:58;;;;;;;;;;;;;;;;;;5019570;28;19944;-64
2024/02/06 14:40:24;;;;;;;;;;;;;;;;;;5022598;28;20269;-63
2024/02/06 14:42:49;;;;;;;;;;;;;;;;;;5017706;28;19916;-64
2024/02/06 14:45:15;;;;;;;;;;;;;;;;;;5025421;28;20369;-65
2024/02/06 14:47:41;;;;;;;;;;;;;;;;;;5018339;28;19913;-65
2024/02/06 14:50:08;;;;;;;;;;;;;;;;;;5020195;28;19944;-63
2024/02/06 14:52:34;;;;;;;;;;;;;;;;;;5023423;28;20321;-64
2024/02/06 14:55:00;;;;;;;;;;;;;;;;;;5027117;28;19920;-64
2024/02/06 14:57:26;;;;;;;;;;;;;;;;;;5021531;28;19995;-63
2024/02/06 14:59:52;;;;;;;;;;;;;;;;;;5016874;28;19913;-62
2024/02/06 15:02:18;;;;;;;;;;;;;;;;;;5024082;28;19940;-65
2024/02/06 15:04:44;;;;;;;;;;;;;;;;;;5025348;28;19991;-65
2024/02/06 15:07:10;;;;;;;;;;;;;;;;;;5016646;28;19979;-64
2024/02/06 15:09:37;;;;;;;;;;;;;;;;;;5011660;28;20381;-66
2024/02/06 15:12:03;;;;;;;;;;;;;;;;;;5017651;28;20257;-65
2024/02/06 15:14:29;;;;;;;;;;;;;;;;;;5023384;28;19913;-65
2024/02/06 15:16:55;;;;;;;;;;;;;;;;;;5030543;28;19962;-64
2024/02/06 15:19:20;;;;;;;;;;;;;;;;;;5031920;28;20017;-63